sensor_id;sensor_type;location;lat;lon;timestamp;P1;durP1;ratioP1;P2;durP2;ratioP2
22270;SDS011;11304;53.520;10.104;2022-12-31T00:01:07;6.18;;;4.80;;
22270;SDS011;11304;53.520;10.104;2022-12-31T00:03:34;4.97;;;4.57;;
22270;SDS011;11304;53.520;10.104;2022-12-31T00:06:00;5.97;;;5.40;;
22270;SDS011;11304;53.520;10.104;2022-12-31T00:08:26;5.38;;;4.85;;
22270;SDS011;11304;53.520;10.104;2022-12-31T00:10:53;6.50;;;5.20;;
22270;SDS011;11304;53.520;10.104;2022-12-31T00:13:19;6.00;;;4.82;;
22270;SDS011;11304;53.520;10.104;2022-12-31T00:15:45;5.30;;;4.80;;
22270;SDS011;11304;53.520;10.104;2022-12-31T00:18:11;5.95;;;5.35;;
22270;SDS011;11304;53.520;10.104;2022-12-31T00:20:38;6.05;;;5.00;;
22270;SDS011;11304;53.520;10.104;2022-12-31T00:23:05;5.97;;;5.47;;
22270;SDS011;11304;53.520;10.104;2022-12-31T00:25:33;5.68;;;5.10;;
22270;SDS011;11304;53.520;10.104;2022-12-31T00:27:59;5.57;;;5.07;;
22270;SDS011;11304;53.520;10.104;2022-12-31T00:30:25;5.75;;;5.05;;
22270;SDS011;11304;53.520;10.104;2022-12-31T00:32:51;6.88;;;4.93;;
22270;SDS011;11304;53.520;10.104;2022-12-31T00:35:18;5.25;;;4.78;;
22270;SDS011;11304;53.520;10.104;2022-12-31T00:37:44;7.25;;;5.07;;
22270;SDS011;11304;53.520;10.104;2022-12-31T00:40:10;6.20;;;4.97;;
22270;SDS011;11304;53.520;10.104;2022-12-31T00:42:36;6.93;;;4.57;;
22270;SDS011;11304;53.520;10.104;2022-12-31T00:45:02;4.80;;;4.35;;
22270;SDS011;11304;53.520;10.104;2022-12-31T00:47:28;5.72;;;4.47;;
22270;SDS011;11304;53.520;10.104;2022-12-31T00:49:55;5.47;;;4.13;;
22270;SDS011;11304;53.520;10.104;2022-12-31T00:52:21;6.20;;;4.72;;
22270;SDS011;11304;53.520;10.104;2022-12-31T00:54:47;5.22;;;4.72;;
22270;SDS011;11304;53.520;10.104;2022-12-31T00:59:39;5.53;;;4.40;;
22270;SDS011;11304;53.520;10.104;2022-12-31T01:02:05;5.38;;;4.18;;
22270;SDS011;11304;53.520;10.104;2022-12-31T01:04:31;4.68;;;4.20;;
22270;SDS011;11304;53.520;10.104;2022-12-31T01:06:57;4.65;;;3.95;;
22270;SDS011;11304;53.520;10.104;2022-12-31T01:09:23;9.05;;;4.43;;
22270;SDS011;11304;53.520;10.104;2022-12-31T01:11:49;4.75;;;3.60;;
22270;SDS011;11304;53.520;10.104;2022-12-31T01:14:16;5.72;;;4.03;;
22270;SDS011;11304;53.520;10.104;2022-12-31T01:16:50;5.90;;;3.90;;
22270;SDS011;11304;53.520;10.104;2022-12-31T01:19:23;4.65;;;4.00;;
22270;SDS011;11304;53.520;10.104;2022-12-31T01:21:49;5.68;;;3.95;;
22270;SDS011;11304;53.520;10.104;2022-12-31T01:24:16;3.63;;;2.92;;
22270;SDS011;11304;53.520;10.104;2022-12-31T01:26:42;6.90;;;3.33;;
22270;SDS011;11304;53.520;10.104;2022-12-31T01:29:09;6.30;;;3.65;;
22270;SDS011;11304;53.520;10.104;2022-12-31T01:31:35;5.57;;;3.33;;
22270;SDS011;11304;53.520;10.104;2022-12-31T01:34:02;5.50;;;3.88;;
22270;SDS011;11304;53.520;10.104;2022-12-31T01:36:30;5.05;;;4.15;;
22270;SDS011;11304;53.520;10.104;2022-12-31T01:38:57;5.13;;;3.97;;
22270;SDS011;11304;53.520;10.104;2022-12-31T01:41:24;4.07;;;3.63;;
22270;SDS011;11304;53.520;10.104;2022-12-31T01:43:51;4.40;;;3.60;;
22270;SDS011;11304;53.520;10.104;2022-12-31T01:48:55;5.63;;;3.60;;
22270;SDS011;11304;53.520;10.104;2022-12-31T01:51:22;4.15;;;3.03;;
22270;SDS011;11304;53.520;10.104;2022-12-31T01:53:50;6.63;;;3.22;;
22270;SDS011;11304;53.520;10.104;2022-12-31T01:56:17;4.70;;;3.63;;
22270;SDS011;11304;53.520;10.104;2022-12-31T01:58:46;4.07;;;3.10;;
22270;SDS011;11304;53.520;10.104;2022-12-31T02:01:13;4.32;;;3.13;;
22270;SDS011;11304;53.520;10.104;2022-12-31T02:03:42;3.90;;;3.25;;
22270;SDS011;11304;53.520;10.104;2022-12-31T02:06:31;5.63;;;2.95;;
22270;SDS011;11304;53.520;10.104;2022-12-31T02:08:54;5.82;;;2.80;;
22270;SDS011;11304;53.520;10.104;2022-12-31T02:11:24;5.00;;;3.00;;
22270;SDS011;11304;53.520;10.104;2022-12-31T02:13:50;3.58;;;2.90;;
22270;SDS011;11304;53.520;10.104;2022-12-31T02:16:24;3.00;;;2.38;;
22270;SDS011;11304;53.520;10.104;2022-12-31T02:19:09;6.07;;;3.20;;
22270;SDS011;11304;53.520;10.104;2022-12-31T02:34:30;5.05;;;3.03;;
22270;SDS011;11304;53.520;10.104;2022-12-31T02:36:57;7.50;;;3.60;;
22270;SDS011;11304;53.520;10.104;2022-12-31T02:39:24;7.18;;;3.67;;
22270;SDS011;11304;53.520;10.104;2022-12-31T02:41:51;4.95;;;3.90;;
22270;SDS011;11304;53.520;10.104;2022-12-31T02:44:22;4.93;;;3.90;;
22270;SDS011;11304;53.520;10.104;2022-12-31T02:46:53;7.07;;;3.90;;
22270;SDS011;11304;53.520;10.104;2022-12-31T02:54:45;5.63;;;4.40;;
22270;SDS011;11304;53.520;10.104;2022-12-31T02:59:44;5.03;;;4.07;;
22270;SDS011;11304;53.520;10.104;2022-12-31T03:02:31;6.35;;;4.70;;
22270;SDS011;11304;53.520;10.104;2022-12-31T03:04:59;5.55;;;4.18;;
22270;SDS011;11304;53.520;10.104;2022-12-31T03:07:27;5.90;;;4.35;;
22270;SDS011;11304;53.520;10.104;2022-12-31T03:09:53;6.80;;;3.58;;
22270;SDS011;11304;53.520;10.104;2022-12-31T03:12:20;7.65;;;2.70;;
22270;SDS011;11304;53.520;10.104;2022-12-31T03:15:06;5.50;;;2.20;;
22270;SDS011;11304;53.520;10.104;2022-12-31T03:17:43;2.78;;;1.85;;
22270;SDS011;11304;53.520;10.104;2022-12-31T03:20:10;3.55;;;1.40;;
22270;SDS011;11304;53.520;10.104;2022-12-31T03:22:54;3.70;;;1.80;;
22270;SDS011;11304;53.520;10.104;2022-12-31T03:25:20;4.70;;;1.40;;
22270;SDS011;11304;53.520;10.104;2022-12-31T03:28:08;2.75;;;1.00;;
22270;SDS011;11304;53.520;10.104;2022-12-31T03:30:36;4.45;;;1.17;;
22270;SDS011;11304;53.520;10.104;2022-12-31T03:33:03;4.05;;;1.40;;
22270;SDS011;11304;53.520;10.104;2022-12-31T03:35:30;3.88;;;1.10;;
22270;SDS011;11304;53.520;10.104;2022-12-31T03:37:57;3.38;;;1.33;;
22270;SDS011;11304;53.520;10.104;2022-12-31T03:40:24;2.08;;;1.10;;
22270;SDS011;11304;53.520;10.104;2022-12-31T03:42:50;2.90;;;1.23;;
22270;SDS011;11304;53.520;10.104;2022-12-31T03:45:17;8.18;;;1.80;;
22270;SDS011;11304;53.520;10.104;2022-12-31T03:47:43;2.65;;;1.90;;
22270;SDS011;11304;53.520;10.104;2022-12-31T03:50:10;3.88;;;1.52;;
22270;SDS011;11304;53.520;10.104;2022-12-31T03:52:36;3.88;;;1.88;;
22270;SDS011;11304;53.520;10.104;2022-12-31T03:55:03;3.05;;;2.22;;
22270;SDS011;11304;53.520;10.104;2022-12-31T03:57:29;3.47;;;2.35;;
22270;SDS011;11304;53.520;10.104;2022-12-31T03:59:55;8.13;;;2.88;;
22270;SDS011;11304;53.520;10.104;2022-12-31T04:02:21;4.93;;;2.30;;
22270;SDS011;11304;53.520;10.104;2022-12-31T04:04:47;6.47;;;2.90;;
22270;SDS011;11304;53.520;10.104;2022-12-31T04:07:13;3.80;;;2.45;;
22270;SDS011;11304;53.520;10.104;2022-12-31T04:09:39;4.03;;;2.30;;
22270;SDS011;11304;53.520;10.104;2022-12-31T04:12:05;3.28;;;2.38;;
22270;SDS011;11304;53.520;10.104;2022-12-31T04:14:32;4.53;;;2.67;;
22270;SDS011;11304;53.520;10.104;2022-12-31T04:16:58;3.88;;;2.47;;
22270;SDS011;11304;53.520;10.104;2022-12-31T04:19:24;4.15;;;2.60;;
22270;SDS011;11304;53.520;10.104;2022-12-31T04:21:50;2.85;;;2.25;;
22270;SDS011;11304;53.520;10.104;2022-12-31T04:24:16;2.88;;;2.22;;
22270;SDS011;11304;53.520;10.104;2022-12-31T04:26:42;3.28;;;2.33;;
22270;SDS011;11304;53.520;10.104;2022-12-31T04:29:09;2.78;;;2.33;;
22270;SDS011;11304;53.520;10.104;2022-12-31T04:31:35;2.42;;;2.05;;
22270;SDS011;11304;53.520;10.104;2022-12-31T04:34:01;3.35;;;2.70;;
22270;SDS011;11304;53.520;10.104;2022-12-31T04:36:27;3.08;;;2.50;;
22270;SDS011;11304;53.520;10.104;2022-12-31T04:38:53;3.05;;;2.42;;
22270;SDS011;11304;53.520;10.104;2022-12-31T04:41:20;3.78;;;2.40;;
22270;SDS011;11304;53.520;10.104;2022-12-31T04:46:12;3.75;;;2.50;;
22270;SDS011;11304;53.520;10.104;2022-12-31T04:48:39;3.85;;;2.58;;
22270;SDS011;11304;53.520;10.104;2022-12-31T04:51:05;4.25;;;2.80;;
22270;SDS011;11304;53.520;10.104;2022-12-31T04:53:31;3.20;;;2.28;;
22270;SDS011;11304;53.520;10.104;2022-12-31T04:55:57;4.10;;;2.85;;
22270;SDS011;11304;53.520;10.104;2022-12-31T04:58:23;3.17;;;2.70;;
22270;SDS011;11304;53.520;10.104;2022-12-31T05:00:50;4.32;;;2.63;;
22270;SDS011;11304;53.520;10.104;2022-12-31T05:03:18;3.38;;;2.42;;
22270;SDS011;11304;53.520;10.104;2022-12-31T05:05:44;3.63;;;2.65;;
22270;SDS011;11304;53.520;10.104;2022-12-31T05:08:11;5.47;;;2.60;;
22270;SDS011;11304;53.520;10.104;2022-12-31T05:10:41;3.70;;;3.10;;
22270;SDS011;11304;53.520;10.104;2022-12-31T05:13:08;5.55;;;2.85;;
22270;SDS011;11304;53.520;10.104;2022-12-31T05:15:34;5.35;;;3.03;;
22270;SDS011;11304;53.520;10.104;2022-12-31T05:18:00;4.10;;;3.05;;
22270;SDS011;11304;53.520;10.104;2022-12-31T05:20:26;3.78;;;2.80;;
22270;SDS011;11304;53.520;10.104;2022-12-31T05:22:53;4.65;;;3.00;;
22270;SDS011;11304;53.520;10.104;2022-12-31T05:25:19;3.72;;;2.40;;
22270;SDS011;11304;53.520;10.104;2022-12-31T05:27:45;3.45;;;2.53;;
22270;SDS011;11304;53.520;10.104;2022-12-31T05:30:11;2.53;;;2.20;;
22270;SDS011;11304;53.520;10.104;2022-12-31T05:32:38;3.20;;;2.53;;
22270;SDS011;11304;53.520;10.104;2022-12-31T05:35:04;2.17;;;1.98;;
22270;SDS011;11304;53.520;10.104;2022-12-31T05:37:31;4.25;;;2.70;;
22270;SDS011;11304;53.520;10.104;2022-12-31T05:39:57;2.45;;;2.25;;
22270;SDS011;11304;53.520;10.104;2022-12-31T05:42:24;3.88;;;2.40;;
22270;SDS011;11304;53.520;10.104;2022-12-31T05:44:50;3.28;;;2.00;;
22270;SDS011;11304;53.520;10.104;2022-12-31T05:47:16;4.00;;;2.03;;
22270;SDS011;11304;53.520;10.104;2022-12-31T05:49:42;1.95;;;1.75;;
22270;SDS011;11304;53.520;10.104;2022-12-31T05:52:08;2.13;;;1.77;;
22270;SDS011;11304;53.520;10.104;2022-12-31T05:54:34;1.95;;;1.63;;
22270;SDS011;11304;53.520;10.104;2022-12-31T05:57:00;3.25;;;1.88;;
22270;SDS011;11304;53.520;10.104;2022-12-31T05:59:27;2.25;;;1.58;;
22270;SDS011;11304;53.520;10.104;2022-12-31T06:01:53;3.67;;;2.00;;
22270;SDS011;11304;53.520;10.104;2022-12-31T06:04:19;3.10;;;1.38;;
22270;SDS011;11304;53.520;10.104;2022-12-31T06:06:45;3.13;;;1.20;;
22270;SDS011;11304;53.520;10.104;2022-12-31T06:09:11;1.75;;;1.08;;
22270;SDS011;11304;53.520;10.104;2022-12-31T06:11:38;2.88;;;1.33;;
22270;SDS011;11304;53.520;10.104;2022-12-31T06:14:04;1.75;;;1.27;;
22270;SDS011;11304;53.520;10.104;2022-12-31T06:16:30;2.10;;;0.95;;
22270;SDS011;11304;53.520;10.104;2022-12-31T06:18:56;2.38;;;1.38;;
22270;SDS011;11304;53.520;10.104;2022-12-31T06:21:22;1.90;;;1.15;;
22270;SDS011;11304;53.520;10.104;2022-12-31T06:23:49;3.42;;;1.30;;
22270;SDS011;11304;53.520;10.104;2022-12-31T06:26:15;1.35;;;1.00;;
22270;SDS011;11304;53.520;10.104;2022-12-31T06:28:41;3.55;;;1.27;;
22270;SDS011;11304;53.520;10.104;2022-12-31T06:31:08;2.80;;;1.38;;
22270;SDS011;11304;53.520;10.104;2022-12-31T06:33:35;1.98;;;1.10;;
22270;SDS011;11304;53.520;10.104;2022-12-31T06:36:04;3.17;;;1.23;;
22270;SDS011;11304;53.520;10.104;2022-12-31T06:38:31;2.47;;;1.27;;
22270;SDS011;11304;53.520;10.104;2022-12-31T06:40:57;1.45;;;1.20;;
22270;SDS011;11304;53.520;10.104;2022-12-31T06:43:27;1.60;;;1.08;;
22270;SDS011;11304;53.520;10.104;2022-12-31T06:45:53;2.25;;;1.00;;
22270;SDS011;11304;53.520;10.104;2022-12-31T06:48:19;2.90;;;1.00;;
22270;SDS011;11304;53.520;10.104;2022-12-31T06:50:45;1.33;;;0.80;;
22270;SDS011;11304;53.520;10.104;2022-12-31T06:53:11;1.63;;;1.00;;
22270;SDS011;11304;53.520;10.104;2022-12-31T06:55:38;0.80;;;0.55;;
22270;SDS011;11304;53.520;10.104;2022-12-31T06:58:04;1.15;;;0.75;;
22270;SDS011;11304;53.520;10.104;2022-12-31T07:00:30;1.45;;;0.80;;
22270;SDS011;11304;53.520;10.104;2022-12-31T07:03:04;2.13;;;0.85;;
22270;SDS011;11304;53.520;10.104;2022-12-31T07:05:45;1.00;;;0.70;;
22270;SDS011;11304;53.520;10.104;2022-12-31T07:08:27;0.50;;;0.50;;
22270;SDS011;11304;53.520;10.104;2022-12-31T07:11:11;1.95;;;0.52;;
22270;SDS011;11304;53.520;10.104;2022-12-31T07:19:06;2.15;;;0.68;;
22270;SDS011;11304;53.520;10.104;2022-12-31T07:21:35;2.55;;;0.50;;
22270;SDS011;11304;53.520;10.104;2022-12-31T07:24:02;0.80;;;0.50;;
22270;SDS011;11304;53.520;10.104;2022-12-31T07:29:07;2.08;;;0.75;;
22270;SDS011;11304;53.520;10.104;2022-12-31T07:34:24;1.15;;;0.52;;
22270;SDS011;11304;53.520;10.104;2022-12-31T07:39:24;3.03;;;0.60;;
22270;SDS011;11304;53.520;10.104;2022-12-31T07:42:05;1.40;;;0.50;;
22270;SDS011;11304;53.520;10.104;2022-12-31T07:47:00;3.00;;;0.45;;
22270;SDS011;11304;53.520;10.104;2022-12-31T07:49:27;2.72;;;0.70;;
22270;SDS011;11304;53.520;10.104;2022-12-31T07:51:54;1.10;;;0.50;;
22270;SDS011;11304;53.520;10.104;2022-12-31T07:54:20;2.25;;;0.60;;
22270;SDS011;11304;53.520;10.104;2022-12-31T07:56:47;0.75;;;0.50;;
22270;SDS011;11304;53.520;10.104;2022-12-31T08:01:46;1.35;;;0.60;;
22270;SDS011;11304;53.520;10.104;2022-12-31T08:06:45;1.98;;;0.77;;
22270;SDS011;11304;53.520;10.104;2022-12-31T08:11:46;1.98;;;0.70;;
22270;SDS011;11304;53.520;10.104;2022-12-31T08:14:13;3.22;;;1.00;;
22270;SDS011;11304;53.520;10.104;2022-12-31T08:16:39;1.52;;;0.90;;
22270;SDS011;11304;53.520;10.104;2022-12-31T08:19:07;1.08;;;0.75;;
22270;SDS011;11304;53.520;10.104;2022-12-31T08:27:12;0.95;;;0.77;;
22270;SDS011;11304;53.520;10.104;2022-12-31T08:29:59;2.47;;;1.13;;
22270;SDS011;11304;53.520;10.104;2022-12-31T08:32:31;1.92;;;1.00;;
22270;SDS011;11304;53.520;10.104;2022-12-31T08:45:21;2.13;;;1.48;;
22270;SDS011;11304;53.520;10.104;2022-12-31T08:50:16;2.38;;;1.20;;
22270;SDS011;11304;53.520;10.104;2022-12-31T08:52:44;1.15;;;1.00;;
22270;SDS011;11304;53.520;10.104;2022-12-31T08:55:11;3.17;;;1.20;;
22270;SDS011;11304;53.520;10.104;2022-12-31T08:57:41;2.60;;;1.17;;
22270;SDS011;11304;53.520;10.104;2022-12-31T09:00:12;2.17;;;1.20;;
22270;SDS011;11304;53.520;10.104;2022-12-31T09:02:50;2.30;;;1.08;;
22270;SDS011;11304;53.520;10.104;2022-12-31T09:05:24;3.15;;;1.10;;
22270;SDS011;11304;53.520;10.104;2022-12-31T09:08:00;1.73;;;1.10;;
22270;SDS011;11304;53.520;10.104;2022-12-31T09:10:39;2.13;;;1.23;;
22270;SDS011;11304;53.520;10.104;2022-12-31T09:15:40;1.85;;;1.60;;
22270;SDS011;11304;53.520;10.104;2022-12-31T09:18:10;2.45;;;1.45;;
22270;SDS011;11304;53.520;10.104;2022-12-31T09:20:37;1.77;;;1.20;;
22270;SDS011;11304;53.520;10.104;2022-12-31T09:23:03;3.88;;;1.30;;
22270;SDS011;11304;53.520;10.104;2022-12-31T09:25:29;3.20;;;2.00;;
22270;SDS011;11304;53.520;10.104;2022-12-31T09:51:34;1.88;;;1.10;;
22270;SDS011;11304;53.520;10.104;2022-12-31T09:56:44;2.05;;;0.90;;
22270;SDS011;11304;53.520;10.104;2022-12-31T09:59:15;2.55;;;1.20;;
22270;SDS011;11304;53.520;10.104;2022-12-31T10:06:54;1.77;;;1.10;;
22270;SDS011;11304;53.520;10.104;2022-12-31T10:09:36;1.95;;;1.08;;
22270;SDS011;11304;53.520;10.104;2022-12-31T10:12:13;1.33;;;0.80;;
22270;SDS011;11304;53.520;10.104;2022-12-31T10:15:00;2.72;;;1.10;;
22270;SDS011;11304;53.520;10.104;2022-12-31T10:23:06;1.25;;;0.90;;
22270;SDS011;11304;53.520;10.104;2022-12-31T10:33:44;1.00;;;0.57;;
22270;SDS011;11304;53.520;10.104;2022-12-31T10:36:30;1.55;;;0.82;;
22270;SDS011;11304;53.520;10.104;2022-12-31T10:52:00;1.30;;;0.50;;
22270;SDS011;11304;53.520;10.104;2022-12-31T11:15:09;0.55;;;0.50;;
22270;SDS011;11304;53.520;10.104;2022-12-31T11:25:53;1.65;;;0.50;;
22270;SDS011;11304;53.520;10.104;2022-12-31T11:38:42;2.13;;;0.93;;
22270;SDS011;11304;53.520;10.104;2022-12-31T11:41:12;4.18;;;2.45;;
22270;SDS011;11304;53.520;10.104;2022-12-31T11:43:50;0.90;;;0.70;;
22270;SDS011;11304;53.520;10.104;2022-12-31T11:56:58;0.60;;;0.35;;
22270;SDS011;11304;53.520;10.104;2022-12-31T11:59:26;1.55;;;0.32;;
22270;SDS011;11304;53.520;10.104;2022-12-31T12:04:37;1.70;;;0.38;;
22270;SDS011;11304;53.520;10.104;2022-12-31T12:07:08;0.93;;;0.30;;
22270;SDS011;11304;53.520;10.104;2022-12-31T12:09:34;0.38;;;0.30;;
22270;SDS011;11304;53.520;10.104;2022-12-31T12:12:03;0.70;;;0.45;;
22270;SDS011;11304;53.520;10.104;2022-12-31T12:14:36;1.08;;;0.30;;
22270;SDS011;11304;53.520;10.104;2022-12-31T12:17:13;1.08;;;0.50;;
22270;SDS011;11304;53.520;10.104;2022-12-31T12:19:41;0.95;;;0.10;;
22270;SDS011;11304;53.520;10.104;2022-12-31T12:22:08;2.00;;;0.40;;
22270;SDS011;11304;53.520;10.104;2022-12-31T12:24:35;1.05;;;0.45;;
22270;SDS011;11304;53.520;10.104;2022-12-31T12:27:01;0.50;;;0.40;;
22270;SDS011;11304;53.520;10.104;2022-12-31T12:29:31;2.72;;;0.55;;
22270;SDS011;11304;53.520;10.104;2022-12-31T12:32:17;2.30;;;0.75;;
22270;SDS011;11304;53.520;10.104;2022-12-31T12:34:43;0.98;;;0.50;;
22270;SDS011;11304;53.520;10.104;2022-12-31T12:37:43;0.82;;;0.40;;
22270;SDS011;11304;53.520;10.104;2022-12-31T12:42:28;2.47;;;0.45;;
22270;SDS011;11304;53.520;10.104;2022-12-31T12:45:09;1.13;;;0.40;;
22270;SDS011;11304;53.520;10.104;2022-12-31T12:47:35;0.57;;;0.30;;
22270;SDS011;11304;53.520;10.104;2022-12-31T12:50:02;1.23;;;0.40;;
22270;SDS011;11304;53.520;10.104;2022-12-31T12:57:25;2.55;;;0.45;;
22270;SDS011;11304;53.520;10.104;2022-12-31T13:12:57;1.02;;;0.40;;
22270;SDS011;11304;53.520;10.104;2022-12-31T13:15:30;0.52;;;0.30;;
22270;SDS011;11304;53.520;10.104;2022-12-31T13:18:02;0.98;;;0.60;;
22270;SDS011;11304;53.520;10.104;2022-12-31T13:30:37;1.00;;;0.40;;
22270;SDS011;11304;53.520;10.104;2022-12-31T13:38:04;1.20;;;0.68;;
22270;SDS011;11304;53.520;10.104;2022-12-31T13:40:36;1.65;;;0.55;;
22270;SDS011;11304;53.520;10.104;2022-12-31T13:43:15;0.90;;;0.52;;
22270;SDS011;11304;53.520;10.104;2022-12-31T13:45:43;1.42;;;0.50;;
22270;SDS011;11304;53.520;10.104;2022-12-31T13:48:16;5.32;;;0.82;;
22270;SDS011;11304;53.520;10.104;2022-12-31T13:50:48;1.75;;;1.00;;
22270;SDS011;11304;53.520;10.104;2022-12-31T13:53:25;1.52;;;0.63;;
22270;SDS011;11304;53.520;10.104;2022-12-31T13:55:57;1.45;;;1.02;;
22270;SDS011;11304;53.520;10.104;2022-12-31T13:58:38;2.22;;;1.60;;
22270;SDS011;11304;53.520;10.104;2022-12-31T14:06:34;0.80;;;0.80;;
22270;SDS011;11304;53.520;10.104;2022-12-31T14:08:58;1.48;;;0.73;;
22270;SDS011;11304;53.520;10.104;2022-12-31T14:11:29;2.95;;;1.00;;
22270;SDS011;11304;53.520;10.104;2022-12-31T14:19:14;2.03;;;1.17;;
22270;SDS011;11304;53.520;10.104;2022-12-31T14:21:53;2.60;;;1.00;;
22270;SDS011;11304;53.520;10.104;2022-12-31T14:26:52;3.42;;;1.38;;
22270;SDS011;11304;53.520;10.104;2022-12-31T14:29:31;2.88;;;0.95;;
22270;SDS011;11304;53.520;10.104;2022-12-31T14:39:56;2.50;;;1.10;;
22270;SDS011;11304;53.520;10.104;2022-12-31T14:50:10;2.20;;;0.95;;
22270;SDS011;11304;53.520;10.104;2022-12-31T14:58:00;4.05;;;2.22;;
22270;SDS011;11304;53.520;10.104;2022-12-31T15:00:34;3.60;;;1.60;;
22270;SDS011;11304;53.520;10.104;2022-12-31T15:03:44;2.47;;;1.40;;
22270;SDS011;11304;53.520;10.104;2022-12-31T15:05:53;3.20;;;0.95;;
22270;SDS011;11304;53.520;10.104;2022-12-31T15:08:23;5.68;;;2.33;;
22270;SDS011;11304;53.520;10.104;2022-12-31T15:18:53;2.33;;;1.10;;
22270;SDS011;11304;53.520;10.104;2022-12-31T15:23:51;1.52;;;1.10;;
22270;SDS011;11304;53.520;10.104;2022-12-31T15:26:27;4.05;;;2.60;;
22270;SDS011;11304;53.520;10.104;2022-12-31T15:31:24;3.15;;;1.55;;
22270;SDS011;11304;53.520;10.104;2022-12-31T15:33:58;3.83;;;1.10;;
22270;SDS011;11304;53.520;10.104;2022-12-31T15:36:27;4.22;;;1.25;;
22270;SDS011;11304;53.520;10.104;2022-12-31T15:39:19;1.95;;;1.10;;
22270;SDS011;11304;53.520;10.104;2022-12-31T15:41:49;3.28;;;1.42;;
22270;SDS011;11304;53.520;10.104;2022-12-31T15:44:24;1.83;;;1.00;;
22270;SDS011;11304;53.520;10.104;2022-12-31T15:46:53;1.77;;;1.27;;
22270;SDS011;11304;53.520;10.104;2022-12-31T15:49:20;2.53;;;1.20;;
22270;SDS011;11304;53.520;10.104;2022-12-31T15:52:33;2.60;;;1.00;;
22270;SDS011;11304;53.520;10.104;2022-12-31T15:54:46;2.95;;;1.40;;
22270;SDS011;11304;53.520;10.104;2022-12-31T15:57:18;3.15;;;1.45;;
22270;SDS011;11304;53.520;10.104;2022-12-31T15:59:44;2.25;;;1.50;;
22270;SDS011;11304;53.520;10.104;2022-12-31T16:02:18;1.75;;;1.10;;
22270;SDS011;11304;53.520;10.104;2022-12-31T16:04:45;1.88;;;1.15;;
22270;SDS011;11304;53.520;10.104;2022-12-31T16:07:12;1.50;;;1.00;;
22270;SDS011;11304;53.520;10.104;2022-12-31T16:09:38;5.07;;;1.50;;
22270;SDS011;11304;53.520;10.104;2022-12-31T16:12:08;3.97;;;1.48;;
22270;SDS011;11304;53.520;10.104;2022-12-31T16:14:35;2.80;;;1.70;;
22270;SDS011;11304;53.520;10.104;2022-12-31T16:17:02;2.40;;;1.48;;
22270;SDS011;11304;53.520;10.104;2022-12-31T16:19:30;2.58;;;1.70;;
22270;SDS011;11304;53.520;10.104;2022-12-31T16:21:56;3.05;;;1.77;;
22270;SDS011;11304;53.520;10.104;2022-12-31T16:24:29;3.30;;;1.95;;
22270;SDS011;11304;53.520;10.104;2022-12-31T16:27:05;2.72;;;1.80;;
22270;SDS011;11304;53.520;10.104;2022-12-31T16:29:33;4.80;;;2.50;;
22270;SDS011;11304;53.520;10.104;2022-12-31T16:32:00;4.30;;;2.53;;
22270;SDS011;11304;53.520;10.104;2022-12-31T16:34:27;4.32;;;2.03;;
22270;SDS011;11304;53.520;10.104;2022-12-31T16:36:54;3.20;;;1.83;;
22270;SDS011;11304;53.520;10.104;2022-12-31T16:39:22;3.65;;;1.80;;
22270;SDS011;11304;53.520;10.104;2022-12-31T16:41:48;4.68;;;2.35;;
22270;SDS011;11304;53.520;10.104;2022-12-31T16:44:28;3.45;;;1.80;;
22270;SDS011;11304;53.520;10.104;2022-12-31T16:46:55;4.80;;;1.42;;
22270;SDS011;11304;53.520;10.104;2022-12-31T16:49:22;3.27;;;1.57;;
22270;SDS011;11304;53.520;10.104;2022-12-31T16:51:49;3.80;;;1.30;;
22270;SDS011;11304;53.520;10.104;2022-12-31T16:54:22;3.38;;;1.67;;
22270;SDS011;11304;53.520;10.104;2022-12-31T16:56:50;4.72;;;2.30;;
22270;SDS011;11304;53.520;10.104;2022-12-31T16:59:20;6.63;;;2.20;;
22270;SDS011;11304;53.520;10.104;2022-12-31T17:01:46;4.00;;;2.45;;
22270;SDS011;11304;53.520;10.104;2022-12-31T17:04:14;4.85;;;2.75;;
22270;SDS011;11304;53.520;10.104;2022-12-31T17:06:42;4.68;;;3.00;;
22270;SDS011;11304;53.520;10.104;2022-12-31T17:09:20;4.78;;;3.05;;
22270;SDS011;11304;53.520;10.104;2022-12-31T17:11:53;7.18;;;4.80;;
22270;SDS011;11304;53.520;10.104;2022-12-31T17:14:21;4.70;;;3.17;;
22270;SDS011;11304;53.520;10.104;2022-12-31T17:16:52;9.55;;;5.78;;
22270;SDS011;11304;53.520;10.104;2022-12-31T17:19:28;8.95;;;6.10;;
22270;SDS011;11304;53.520;10.104;2022-12-31T17:21:56;6.13;;;3.92;;
22270;SDS011;11304;53.520;10.104;2022-12-31T17:24:22;7.07;;;5.57;;
22270;SDS011;11304;53.520;10.104;2022-12-31T17:26:49;4.97;;;4.03;;
22270;SDS011;11304;53.520;10.104;2022-12-31T17:29:20;11.00;;;8.55;;
22270;SDS011;11304;53.520;10.104;2022-12-31T17:31:57;16.85;;;13.55;;
22270;SDS011;11304;53.520;10.104;2022-12-31T17:34:28;15.93;;;12.15;;
22270;SDS011;11304;53.520;10.104;2022-12-31T17:36:56;6.45;;;4.30;;
22270;SDS011;11304;53.520;10.104;2022-12-31T17:39:23;10.40;;;5.72;;
22270;SDS011;11304;53.520;10.104;2022-12-31T17:41:50;10.00;;;6.13;;
22270;SDS011;11304;53.520;10.104;2022-12-31T17:44:20;10.07;;;5.38;;
22270;SDS011;11304;53.520;10.104;2022-12-31T17:46:48;18.27;;;10.85;;
22270;SDS011;11304;53.520;10.104;2022-12-31T17:49:14;16.75;;;7.85;;
22270;SDS011;11304;53.520;10.104;2022-12-31T17:51:40;12.35;;;8.00;;
22270;SDS011;11304;53.520;10.104;2022-12-31T17:54:13;29.90;;;20.75;;
22270;SDS011;11304;53.520;10.104;2022-12-31T17:56:40;15.30;;;10.13;;
22270;SDS011;11304;53.520;10.104;2022-12-31T17:59:07;17.02;;;11.07;;
22270;SDS011;11304;53.520;10.104;2022-12-31T18:01:33;9.48;;;6.65;;
22270;SDS011;11304;53.520;10.104;2022-12-31T18:03:59;9.15;;;5.28;;
22270;SDS011;11304;53.520;10.104;2022-12-31T18:06:25;20.08;;;13.65;;
22270;SDS011;11304;53.520;10.104;2022-12-31T18:08:51;19.73;;;11.70;;
22270;SDS011;11304;53.520;10.104;2022-12-31T18:11:21;14.10;;;8.65;;
22270;SDS011;11304;53.520;10.104;2022-12-31T18:13:47;10.52;;;6.97;;
22270;SDS011;11304;53.520;10.104;2022-12-31T18:16:14;11.20;;;6.80;;
22270;SDS011;11304;53.520;10.104;2022-12-31T18:18:40;9.57;;;5.40;;
22270;SDS011;11304;53.520;10.104;2022-12-31T18:21:11;19.20;;;12.45;;
22270;SDS011;11304;53.520;10.104;2022-12-31T18:23:42;17.40;;;10.10;;
22270;SDS011;11304;53.520;10.104;2022-12-31T18:26:13;37.53;;;26.17;;
22270;SDS011;11304;53.520;10.104;2022-12-31T18:28:40;22.98;;;11.88;;
22270;SDS011;11304;53.520;10.104;2022-12-31T18:31:09;12.20;;;7.78;;
22270;SDS011;11304;53.520;10.104;2022-12-31T18:33:36;10.98;;;5.63;;
22270;SDS011;11304;53.520;10.104;2022-12-31T18:36:02;11.93;;;6.20;;
22270;SDS011;11304;53.520;10.104;2022-12-31T18:38:28;16.17;;;6.50;;
22270;SDS011;11304;53.520;10.104;2022-12-31T18:40:58;8.80;;;5.70;;
22270;SDS011;11304;53.520;10.104;2022-12-31T18:43:24;14.65;;;7.63;;
22270;SDS011;11304;53.520;10.104;2022-12-31T18:45:51;13.70;;;7.68;;
22270;SDS011;11304;53.520;10.104;2022-12-31T18:48:17;14.95;;;7.95;;
22270;SDS011;11304;53.520;10.104;2022-12-31T18:50:43;15.75;;;9.90;;
22270;SDS011;11304;53.520;10.104;2022-12-31T18:53:14;9.63;;;7.25;;
22270;SDS011;11304;53.520;10.104;2022-12-31T18:55:42;14.15;;;6.97;;
22270;SDS011;11304;53.520;10.104;2022-12-31T19:00:35;21.88;;;14.73;;
22270;SDS011;11304;53.520;10.104;2022-12-31T19:03:02;25.15;;;16.50;;
22270;SDS011;11304;53.520;10.104;2022-12-31T19:05:30;17.63;;;8.68;;
22270;SDS011;11304;53.520;10.104;2022-12-31T19:07:56;12.45;;;6.97;;
22270;SDS011;11304;53.520;10.104;2022-12-31T19:10:23;11.80;;;5.22;;
22270;SDS011;11304;53.520;10.104;2022-12-31T19:12:49;7.53;;;3.78;;